Terminal Aerodrome Forecast
Issued by NWS Chicago, IL

Home | Current Version | Previous Version | Text Only | Print | Product List | Glossary Off
Versions: 1 2 3 4 5 6 7 8 9 10 11 12 13 14 15 16 17 18 19 20 21 22 23 24 25 26

749
FTUS43 KLOT 250520
TAFRFD
TAF
KRFD 250520Z 2506/2606 28004KT P6SM VCSH SCT040 BKN100
      TEMPO 2507/2510 4SM -TSRA SCT010 BKN025CB
     FM251200 31007KT P6SM VCSH BKN025
     FM251700 30009KT P6SM SCT035
     FM252000 31011KT P6SM SCT150
     FM260100 29004KT P6SM FEW150 SCT250=

USA.gov is the U.S. government's official web portal to all federal, state and local government web resources and services.